Ingram, TX (78025)

11:38 AM CDT on July 24, 2016 (GMT -0500)
HIGH POINTE | | Change Station

Elev 1965 ft 30.11 °N, 99.23 °W | Updated 14 minutes ago

Clear
Clear
86.0 °F
Feels Like 83 °F
N
2.5
Wind Variable Wind from ESE
Gusts 2.5 mph

Today
High -- | Low -- °F
--% Chance of Precip.
Yesterday
High -- | Low -- °F
Precip. -- in
Pressure 30.02 in
Visibility 10.0 miles
Clouds Clear
Heat Index 83 °F
Dew Point 23 °F
Humidity 10%
Rainfall 0.00 in
Snow Depth Not available.
6:51 AM 8:35 PM
Waning Gibbous, 75% visible
METAR KERV 241615Z AUTO 17006KT 10SM CLR 30/22 A3002 RMK AO2 T03000221
Pressure 30.02 in
Visibility 10.0 miles
Clouds Clear
Heat Index 83 °F
Dew Point 23 °F
Humidity 10%
Rainfall 0.00 in
Snow Depth Not available.
6:51 AM 8:35 PM
Waning Gibbous, 75% visible
METAR KERV 241615Z AUTO 17006KT 10SM CLR 30/22 A3002 RMK AO2 T03000221

10-Day Weather Forecast

Almanac

Astronomy

Jul. 24, 2016 Rise Set
Actual Time
Civil Twilight
Nautical Twilight
Astronomical Twilight
Moon
Length of Visible Light
Length of Day
Tomorrow will be .
, % of the Moon is Illuminated

Today's Extremes

State Highs State Lows

Community

WunderPhotos

Upload Photos

1,927,119 photos uploaded!

WunderBlog® & News

Nearby

Air Quality

  Air Quality AQ Index Pollutant
Not available.

Snow Depth

Station Depth Elevation

Earthquake Activity

City Distance Mag. Time & Date
Minimum magnitude displayed is 2.5.

Coastal Water Temperatures

Place Temperature

Stations

Nearby Weather Stations

Station Location Temp. Windchill Dew Point Humidity Wind Precip. Elev Updated Type
                   

Watches & Warnings

There are currently no watches in effect.